sensor_id;sensor_type;location;lat;lon;timestamp;P1;durP1;ratioP1;P2;durP2;ratioP2
40058;SDS011;25763;49.972;8.568;2024-02-21T00:01:22;76.95;;;73.05;;
40058;SDS011;25763;49.972;8.568;2024-02-21T00:03:47;79.18;;;74.88;;
40058;SDS011;25763;49.972;8.568;2024-02-21T00:06:13;78.88;;;74.72;;
40058;SDS011;25763;49.972;8.568;2024-02-21T00:08:38;70.90;;;67.00;;
40058;SDS011;25763;49.972;8.568;2024-02-21T00:11:04;67.75;;;64.28;;
40058;SDS011;25763;49.972;8.568;2024-02-21T00:13:29;67.55;;;63.92;;
40058;SDS011;25763;49.972;8.568;2024-02-21T00:15:55;63.17;;;59.88;;
40058;SDS011;25763;49.972;8.568;2024-02-21T00:18:20;63.92;;;60.63;;
40058;SDS011;25763;49.972;8.568;2024-02-21T00:20:46;63.90;;;60.60;;
40058;SDS011;25763;49.972;8.568;2024-02-21T00:23:11;65.60;;;62.20;;
40058;SDS011;25763;49.972;8.568;2024-02-21T00:25:37;64.28;;;60.65;;
40058;SDS011;25763;49.972;8.568;2024-02-21T00:28:02;67.38;;;63.08;;
40058;SDS011;25763;49.972;8.568;2024-02-21T00:30:28;63.45;;;60.25;;
40058;SDS011;25763;49.972;8.568;2024-02-21T00:32:53;74.22;;;70.35;;
40058;SDS011;25763;49.972;8.568;2024-02-21T00:35:18;67.93;;;64.32;;
40058;SDS011;25763;49.972;8.568;2024-02-21T00:37:44;70.80;;;67.00;;
40058;SDS011;25763;49.972;8.568;2024-02-21T00:40:09;63.75;;;60.47;;
40058;SDS011;25763;49.972;8.568;2024-02-21T00:42:35;61.72;;;58.35;;
40058;SDS011;25763;49.972;8.568;2024-02-21T00:45:01;68.38;;;64.82;;
40058;SDS011;25763;49.972;8.568;2024-02-21T00:47:26;67.32;;;63.80;;
40058;SDS011;25763;49.972;8.568;2024-02-21T00:49:51;69.80;;;66.15;;
40058;SDS011;25763;49.972;8.568;2024-02-21T00:52:17;67.95;;;64.53;;
40058;SDS011;25763;49.972;8.568;2024-02-21T00:54:43;66.70;;;63.17;;
40058;SDS011;25763;49.972;8.568;2024-02-21T00:57:08;63.03;;;59.83;;
40058;SDS011;25763;49.972;8.568;2024-02-21T00:59:34;64.40;;;61.15;;
40058;SDS011;25763;49.972;8.568;2024-02-21T01:01:59;59.97;;;56.95;;
40058;SDS011;25763;49.972;8.568;2024-02-21T01:04:24;58.90;;;55.83;;
40058;SDS011;25763;49.972;8.568;2024-02-21T01:06:50;62.97;;;59.45;;
40058;SDS011;25763;49.972;8.568;2024-02-21T01:09:15;60.85;;;57.70;;
40058;SDS011;25763;49.972;8.568;2024-02-21T01:11:40;63.47;;;60.10;;
40058;SDS011;25763;49.972;8.568;2024-02-21T01:14:06;59.13;;;55.97;;
40058;SDS011;25763;49.972;8.568;2024-02-21T01:16:31;64.18;;;60.33;;
40058;SDS011;25763;49.972;8.568;2024-02-21T01:18:57;58.45;;;54.78;;
40058;SDS011;25763;49.972;8.568;2024-02-21T01:21:22;62.83;;;59.60;;
40058;SDS011;25763;49.972;8.568;2024-02-21T01:23:48;60.25;;;57.13;;
40058;SDS011;25763;49.972;8.568;2024-02-21T01:26:13;60.95;;;57.80;;
40058;SDS011;25763;49.972;8.568;2024-02-21T01:28:40;58.35;;;55.20;;
40058;SDS011;25763;49.972;8.568;2024-02-21T01:31:06;59.20;;;56.15;;
40058;SDS011;25763;49.972;8.568;2024-02-21T01:33:32;61.03;;;57.92;;
40058;SDS011;25763;49.972;8.568;2024-02-21T01:36:03;57.63;;;54.63;;
40058;SDS011;25763;49.972;8.568;2024-02-21T01:38:28;67.40;;;64.00;;
40058;SDS011;25763;49.972;8.568;2024-02-21T01:40:55;63.17;;;59.97;;
40058;SDS011;25763;49.972;8.568;2024-02-21T01:43:21;64.80;;;61.50;;
40058;SDS011;25763;49.972;8.568;2024-02-21T01:45:48;59.17;;;56.15;;
40058;SDS011;25763;49.972;8.568;2024-02-21T01:48:16;63.00;;;59.63;;
40058;SDS011;25763;49.972;8.568;2024-02-21T01:50:43;66.07;;;62.67;;
40058;SDS011;25763;49.972;8.568;2024-02-21T01:53:09;68.75;;;65.13;;
40058;SDS011;25763;49.972;8.568;2024-02-21T01:55:35;56.92;;;53.85;;
40058;SDS011;25763;49.972;8.568;2024-02-21T01:58:01;63.90;;;60.70;;
40058;SDS011;25763;49.972;8.568;2024-02-21T02:00:27;66.03;;;62.45;;
40058;SDS011;25763;49.972;8.568;2024-02-21T02:02:53;64.68;;;61.38;;
40058;SDS011;25763;49.972;8.568;2024-02-21T02:05:19;63.15;;;59.92;;
40058;SDS011;25763;49.972;8.568;2024-02-21T02:07:46;60.80;;;57.70;;
40058;SDS011;25763;49.972;8.568;2024-02-21T02:10:11;63.45;;;60.25;;
40058;SDS011;25763;49.972;8.568;2024-02-21T02:12:37;57.85;;;54.95;;
40058;SDS011;25763;49.972;8.568;2024-02-21T02:15:03;56.88;;;53.88;;
40058;SDS011;25763;49.972;8.568;2024-02-21T02:17:31;60.10;;;56.80;;
40058;SDS011;25763;49.972;8.568;2024-02-21T02:19:57;57.03;;;54.08;;
40058;SDS011;25763;49.972;8.568;2024-02-21T02:22:23;55.05;;;52.17;;
40058;SDS011;25763;49.972;8.568;2024-02-21T02:24:53;66.90;;;63.15;;
40058;SDS011;25763;49.972;8.568;2024-02-21T02:27:19;59.90;;;56.80;;
40058;SDS011;25763;49.972;8.568;2024-02-21T02:29:44;57.30;;;54.35;;
40058;SDS011;25763;49.972;8.568;2024-02-21T02:32:09;55.00;;;52.13;;
40058;SDS011;25763;49.972;8.568;2024-02-21T02:34:35;50.83;;;48.13;;
40058;SDS011;25763;49.972;8.568;2024-02-21T02:37:00;47.15;;;44.45;;
40058;SDS011;25763;49.972;8.568;2024-02-21T02:39:25;53.10;;;50.38;;
40058;SDS011;25763;49.972;8.568;2024-02-21T02:41:51;48.70;;;46.15;;
40058;SDS011;25763;49.972;8.568;2024-02-21T02:44:16;46.78;;;44.15;;
40058;SDS011;25763;49.972;8.568;2024-02-21T02:46:42;48.72;;;46.20;;
40058;SDS011;25763;49.972;8.568;2024-02-21T02:49:07;46.70;;;44.30;;
40058;SDS011;25763;49.972;8.568;2024-02-21T02:51:32;48.70;;;46.15;;
40058;SDS011;25763;49.972;8.568;2024-02-21T02:53:58;51.67;;;48.92;;
40058;SDS011;25763;49.972;8.568;2024-02-21T02:56:23;52.25;;;49.50;;
40058;SDS011;25763;49.972;8.568;2024-02-21T02:58:48;51.80;;;49.13;;
40058;SDS011;25763;49.972;8.568;2024-02-21T03:01:14;51.63;;;48.90;;
40058;SDS011;25763;49.972;8.568;2024-02-21T03:03:40;53.72;;;50.72;;
40058;SDS011;25763;49.972;8.568;2024-02-21T03:06:05;49.35;;;46.70;;
40058;SDS011;25763;49.972;8.568;2024-02-21T03:08:31;49.85;;;46.17;;
40058;SDS011;25763;49.972;8.568;2024-02-21T03:10:57;47.47;;;44.90;;
40058;SDS011;25763;49.972;8.568;2024-02-21T03:13:24;45.08;;;42.55;;
40058;SDS011;25763;49.972;8.568;2024-02-21T03:15:50;45.53;;;42.63;;
40058;SDS011;25763;49.972;8.568;2024-02-21T03:18:15;43.25;;;41.03;;
40058;SDS011;25763;49.972;8.568;2024-02-21T03:20:40;47.17;;;44.58;;
40058;SDS011;25763;49.972;8.568;2024-02-21T03:23:06;47.55;;;45.03;;
40058;SDS011;25763;49.972;8.568;2024-02-21T03:25:31;42.45;;;40.17;;
40058;SDS011;25763;49.972;8.568;2024-02-21T03:27:56;43.17;;;40.72;;
40058;SDS011;25763;49.972;8.568;2024-02-21T03:30:22;41.17;;;39.00;;
40058;SDS011;25763;49.972;8.568;2024-02-21T03:32:47;40.90;;;38.63;;
40058;SDS011;25763;49.972;8.568;2024-02-21T03:35:12;46.53;;;44.03;;
40058;SDS011;25763;49.972;8.568;2024-02-21T03:37:38;43.78;;;41.35;;
40058;SDS011;25763;49.972;8.568;2024-02-21T03:40:06;47.30;;;44.85;;
40058;SDS011;25763;49.972;8.568;2024-02-21T03:42:32;47.90;;;45.42;;
40058;SDS011;25763;49.972;8.568;2024-02-21T03:44:58;47.70;;;45.22;;
40058;SDS011;25763;49.972;8.568;2024-02-21T03:47:23;50.33;;;45.97;;
40058;SDS011;25763;49.972;8.568;2024-02-21T03:49:48;48.95;;;45.58;;
40058;SDS011;25763;49.972;8.568;2024-02-21T03:52:14;50.63;;;47.92;;
40058;SDS011;25763;49.972;8.568;2024-02-21T03:54:40;47.00;;;44.35;;
40058;SDS011;25763;49.972;8.568;2024-02-21T03:57:05;45.80;;;43.35;;
40058;SDS011;25763;49.972;8.568;2024-02-21T03:59:31;54.85;;;51.90;;
40058;SDS011;25763;49.972;8.568;2024-02-21T04:01:56;56.17;;;53.28;;
40058;SDS011;25763;49.972;8.568;2024-02-21T04:04:22;54.38;;;51.47;;
40058;SDS011;25763;49.972;8.568;2024-02-21T04:06:50;57.33;;;54.10;;
40058;SDS011;25763;49.972;8.568;2024-02-21T04:09:16;56.90;;;53.95;;
40058;SDS011;25763;49.972;8.568;2024-02-21T04:11:42;58.05;;;54.97;;
40058;SDS011;25763;49.972;8.568;2024-02-21T04:14:07;58.72;;;55.63;;
40058;SDS011;25763;49.972;8.568;2024-02-21T04:16:33;62.35;;;58.08;;
40058;SDS011;25763;49.972;8.568;2024-02-21T04:18:59;62.63;;;59.40;;
40058;SDS011;25763;49.972;8.568;2024-02-21T04:21:24;60.67;;;57.55;;
40058;SDS011;25763;49.972;8.568;2024-02-21T04:23:50;63.47;;;59.85;;
40058;SDS011;25763;49.972;8.568;2024-02-21T04:26:15;60.20;;;57.17;;
40058;SDS011;25763;49.972;8.568;2024-02-21T04:28:41;60.13;;;56.97;;
40058;SDS011;25763;49.972;8.568;2024-02-21T04:31:06;58.83;;;54.88;;
40058;SDS011;25763;49.972;8.568;2024-02-21T04:33:31;60.47;;;57.42;;
40058;SDS011;25763;49.972;8.568;2024-02-21T04:35:57;59.85;;;56.60;;
40058;SDS011;25763;49.972;8.568;2024-02-21T04:38:23;57.40;;;54.40;;
40058;SDS011;25763;49.972;8.568;2024-02-21T04:40:49;57.90;;;54.95;;
40058;SDS011;25763;49.972;8.568;2024-02-21T04:43:14;54.50;;;51.67;;
40058;SDS011;25763;49.972;8.568;2024-02-21T04:45:39;54.10;;;51.38;;
40058;SDS011;25763;49.972;8.568;2024-02-21T04:48:05;55.60;;;52.63;;
40058;SDS011;25763;49.972;8.568;2024-02-21T04:50:30;56.28;;;53.33;;
40058;SDS011;25763;49.972;8.568;2024-02-21T04:52:55;53.78;;;50.88;;
40058;SDS011;25763;49.972;8.568;2024-02-21T04:55:21;56.80;;;53.88;;
40058;SDS011;25763;49.972;8.568;2024-02-21T04:57:46;54.95;;;52.13;;
40058;SDS011;25763;49.972;8.568;2024-02-21T05:00:11;55.95;;;52.95;;
40058;SDS011;25763;49.972;8.568;2024-02-21T05:02:37;53.80;;;50.53;;
40058;SDS011;25763;49.972;8.568;2024-02-21T05:05:03;59.08;;;56.03;;
40058;SDS011;25763;49.972;8.568;2024-02-21T05:07:28;57.28;;;53.95;;
40058;SDS011;25763;49.972;8.568;2024-02-21T05:09:53;55.95;;;53.00;;
40058;SDS011;25763;49.972;8.568;2024-02-21T05:12:19;56.67;;;53.70;;
40058;SDS011;25763;49.972;8.568;2024-02-21T05:14:45;56.72;;;53.83;;
40058;SDS011;25763;49.972;8.568;2024-02-21T05:17:12;62.13;;;58.03;;
40058;SDS011;25763;49.972;8.568;2024-02-21T05:19:37;56.55;;;51.80;;
40058;SDS011;25763;49.972;8.568;2024-02-21T05:22:02;56.40;;;53.03;;
40058;SDS011;25763;49.972;8.568;2024-02-21T05:24:28;59.55;;;56.38;;
40058;SDS011;25763;49.972;8.568;2024-02-21T05:26:54;55.40;;;52.53;;
40058;SDS011;25763;49.972;8.568;2024-02-21T05:29:20;57.58;;;54.00;;
40058;SDS011;25763;49.972;8.568;2024-02-21T05:36:42;46.85;;;44.42;;
40058;SDS011;25763;49.972;8.568;2024-02-21T05:39:07;51.03;;;48.38;;
40058;SDS011;25763;49.972;8.568;2024-02-21T05:41:32;52.35;;;49.70;;
40058;SDS011;25763;49.972;8.568;2024-02-21T05:43:58;56.03;;;52.03;;
40058;SDS011;25763;49.972;8.568;2024-02-21T05:46:23;56.53;;;53.60;;
40058;SDS011;25763;49.972;8.568;2024-02-21T05:48:49;58.42;;;55.20;;
40058;SDS011;25763;49.972;8.568;2024-02-21T05:51:15;53.88;;;51.03;;
40058;SDS011;25763;49.972;8.568;2024-02-21T05:53:40;51.90;;;48.67;;
40058;SDS011;25763;49.972;8.568;2024-02-21T05:56:14;53.03;;;49.20;;
40058;SDS011;25763;49.972;8.568;2024-02-21T05:58:40;51.47;;;48.45;;
40058;SDS011;25763;49.972;8.568;2024-02-21T06:01:06;45.60;;;43.25;;
40058;SDS011;25763;49.972;8.568;2024-02-21T06:03:32;46.38;;;43.97;;
40058;SDS011;25763;49.972;8.568;2024-02-21T06:05:58;45.53;;;43.05;;
40058;SDS011;25763;49.972;8.568;2024-02-21T06:08:25;45.10;;;42.53;;
40058;SDS011;25763;49.972;8.568;2024-02-21T06:10:50;45.35;;;42.92;;
40058;SDS011;25763;49.972;8.568;2024-02-21T06:13:19;42.47;;;40.10;;
40058;SDS011;25763;49.972;8.568;2024-02-21T06:15:46;42.28;;;40.05;;
40058;SDS011;25763;49.972;8.568;2024-02-21T06:18:11;44.53;;;41.85;;
40058;SDS011;25763;49.972;8.568;2024-02-21T06:20:37;43.72;;;41.35;;
40058;SDS011;25763;49.972;8.568;2024-02-21T06:23:06;41.58;;;39.42;;
40058;SDS011;25763;49.972;8.568;2024-02-21T06:25:32;44.05;;;41.58;;
40058;SDS011;25763;49.972;8.568;2024-02-21T06:27:57;46.08;;;43.05;;
40058;SDS011;25763;49.972;8.568;2024-02-21T06:30:22;44.20;;;41.72;;
40058;SDS011;25763;49.972;8.568;2024-02-21T06:32:48;44.78;;;42.00;;
40058;SDS011;25763;49.972;8.568;2024-02-21T06:35:13;42.78;;;40.47;;
40058;SDS011;25763;49.972;8.568;2024-02-21T06:37:38;39.20;;;37.17;;
40058;SDS011;25763;49.972;8.568;2024-02-21T06:40:04;40.88;;;38.63;;
40058;SDS011;25763;49.972;8.568;2024-02-21T06:42:30;39.67;;;37.63;;
40058;SDS011;25763;49.972;8.568;2024-02-21T06:44:55;39.33;;;37.13;;
40058;SDS011;25763;49.972;8.568;2024-02-21T06:47:21;42.78;;;40.38;;
40058;SDS011;25763;49.972;8.568;2024-02-21T06:49:50;42.67;;;40.45;;
40058;SDS011;25763;49.972;8.568;2024-02-21T06:52:19;40.83;;;38.33;;
40058;SDS011;25763;49.972;8.568;2024-02-21T06:54:45;41.30;;;38.97;;
40058;SDS011;25763;49.972;8.568;2024-02-21T06:57:12;42.55;;;40.33;;
40058;SDS011;25763;49.972;8.568;2024-02-21T06:59:38;42.20;;;40.00;;
40058;SDS011;25763;49.972;8.568;2024-02-21T07:02:04;38.28;;;36.10;;
40058;SDS011;25763;49.972;8.568;2024-02-21T07:04:29;40.60;;;38.50;;
40058;SDS011;25763;49.972;8.568;2024-02-21T07:06:54;41.40;;;39.25;;
40058;SDS011;25763;49.972;8.568;2024-02-21T07:09:19;41.30;;;38.80;;
40058;SDS011;25763;49.972;8.568;2024-02-21T07:11:45;40.05;;;37.67;;
40058;SDS011;25763;49.972;8.568;2024-02-21T07:14:10;39.67;;;37.58;;
40058;SDS011;25763;49.972;8.568;2024-02-21T07:16:36;37.55;;;35.58;;
40058;SDS011;25763;49.972;8.568;2024-02-21T07:19:01;39.38;;;37.30;;
40058;SDS011;25763;49.972;8.568;2024-02-21T07:21:27;38.15;;;35.83;;
40058;SDS011;25763;49.972;8.568;2024-02-21T07:23:53;36.30;;;34.40;;
40058;SDS011;25763;49.972;8.568;2024-02-21T07:26:18;35.42;;;33.55;;
40058;SDS011;25763;49.972;8.568;2024-02-21T07:28:43;36.30;;;34.33;;
40058;SDS011;25763;49.972;8.568;2024-02-21T07:31:09;34.00;;;32.20;;
40058;SDS011;25763;49.972;8.568;2024-02-21T07:33:34;32.10;;;30.40;;
40058;SDS011;25763;49.972;8.568;2024-02-21T07:36:00;32.60;;;30.75;;
40058;SDS011;25763;49.972;8.568;2024-02-21T07:38:26;30.77;;;29.10;;
40058;SDS011;25763;49.972;8.568;2024-02-21T07:40:51;29.95;;;28.35;;
40058;SDS011;25763;49.972;8.568;2024-02-21T07:43:16;30.10;;;28.50;;
40058;SDS011;25763;49.972;8.568;2024-02-21T07:45:42;30.77;;;28.98;;
40058;SDS011;25763;49.972;8.568;2024-02-21T07:48:07;29.73;;;28.02;;
40058;SDS011;25763;49.972;8.568;2024-02-21T07:50:33;31.00;;;29.10;;
40058;SDS011;25763;49.972;8.568;2024-02-21T07:52:58;30.17;;;28.48;;
40058;SDS011;25763;49.972;8.568;2024-02-21T07:55:23;29.20;;;27.58;;
40058;SDS011;25763;49.972;8.568;2024-02-21T07:57:49;32.35;;;29.90;;
40058;SDS011;25763;49.972;8.568;2024-02-21T08:00:15;31.35;;;29.40;;
40058;SDS011;25763;49.972;8.568;2024-02-21T08:02:50;25.48;;;24.08;;
40058;SDS011;25763;49.972;8.568;2024-02-21T08:07:41;24.67;;;23.38;;
40058;SDS011;25763;49.972;8.568;2024-02-21T08:10:06;26.48;;;24.75;;
40058;SDS011;25763;49.972;8.568;2024-02-21T08:12:33;24.55;;;23.15;;
40058;SDS011;25763;49.972;8.568;2024-02-21T08:14:58;23.73;;;22.33;;
40058;SDS011;25763;49.972;8.568;2024-02-21T08:17:24;21.92;;;20.63;;
40058;SDS011;25763;49.972;8.568;2024-02-21T08:19:49;24.77;;;23.23;;
40058;SDS011;25763;49.972;8.568;2024-02-21T08:22:15;25.08;;;23.58;;
40058;SDS011;25763;49.972;8.568;2024-02-21T08:24:40;24.48;;;23.08;;
40058;SDS011;25763;49.972;8.568;2024-02-21T08:27:06;20.27;;;19.17;;
40058;SDS011;25763;49.972;8.568;2024-02-21T08:29:32;22.65;;;21.20;;
40058;SDS011;25763;49.972;8.568;2024-02-21T08:31:57;21.52;;;20.33;;
40058;SDS011;25763;49.972;8.568;2024-02-21T08:34:23;24.13;;;22.65;;
40058;SDS011;25763;49.972;8.568;2024-02-21T08:36:48;24.05;;;22.65;;
40058;SDS011;25763;49.972;8.568;2024-02-21T08:39:13;21.67;;;20.15;;
40058;SDS011;25763;49.972;8.568;2024-02-21T08:41:42;23.90;;;22.60;;
40058;SDS011;25763;49.972;8.568;2024-02-21T08:44:07;25.85;;;24.23;;
40058;SDS011;25763;49.972;8.568;2024-02-21T08:46:33;26.60;;;24.73;;
40058;SDS011;25763;49.972;8.568;2024-02-21T08:48:58;21.55;;;20.35;;
40058;SDS011;25763;49.972;8.568;2024-02-21T08:51:24;28.45;;;26.95;;
40058;SDS011;25763;49.972;8.568;2024-02-21T08:53:49;33.97;;;32.17;;
40058;SDS011;25763;49.972;8.568;2024-02-21T08:56:15;29.42;;;27.73;;
40058;SDS011;25763;49.972;8.568;2024-02-21T08:58:41;29.73;;;28.10;;
40058;SDS011;25763;49.972;8.568;2024-02-21T09:01:07;41.15;;;39.05;;
40058;SDS011;25763;49.972;8.568;2024-02-21T09:03:38;61.72;;;58.53;;
40058;SDS011;25763;49.972;8.568;2024-02-21T09:06:04;40.78;;;38.65;;
40058;SDS011;25763;49.972;8.568;2024-02-21T09:08:30;64.90;;;61.40;;
40058;SDS011;25763;49.972;8.568;2024-02-21T09:10:56;54.50;;;51.75;;
40058;SDS011;25763;49.972;8.568;2024-02-21T09:13:21;55.60;;;52.75;;
40058;SDS011;25763;49.972;8.568;2024-02-21T09:15:47;48.47;;;45.83;;
40058;SDS011;25763;49.972;8.568;2024-02-21T09:18:13;81.05;;;76.68;;
40058;SDS011;25763;49.972;8.568;2024-02-21T09:20:39;79.40;;;75.05;;
40058;SDS011;25763;49.972;8.568;2024-02-21T09:23:04;84.57;;;79.93;;
40058;SDS011;25763;49.972;8.568;2024-02-21T09:25:30;82.95;;;78.82;;
40058;SDS011;25763;49.972;8.568;2024-02-21T09:27:56;80.00;;;76.00;;
40058;SDS011;25763;49.972;8.568;2024-02-21T09:30:23;82.78;;;78.57;;
40058;SDS011;25763;49.972;8.568;2024-02-21T09:32:49;80.53;;;76.13;;
40058;SDS011;25763;49.972;8.568;2024-02-21T09:35:14;82.00;;;77.90;;
40058;SDS011;25763;49.972;8.568;2024-02-21T09:37:40;86.97;;;82.68;;
40058;SDS011;25763;49.972;8.568;2024-02-21T09:40:05;83.72;;;79.57;;
40058;SDS011;25763;49.972;8.568;2024-02-21T09:45:02;84.68;;;80.32;;
40058;SDS011;25763;49.972;8.568;2024-02-21T09:47:39;79.65;;;75.68;;
40058;SDS011;25763;49.972;8.568;2024-02-21T09:50:21;81.70;;;77.60;;
40058;SDS011;25763;49.972;8.568;2024-02-21T09:52:48;77.65;;;73.78;;
40058;SDS011;25763;49.972;8.568;2024-02-21T09:55:14;80.88;;;76.88;;
40058;SDS011;25763;49.972;8.568;2024-02-21T09:57:41;83.10;;;78.93;;
40058;SDS011;25763;49.972;8.568;2024-02-21T10:00:09;80.55;;;76.53;;
40058;SDS011;25763;49.972;8.568;2024-02-21T10:02:34;88.05;;;83.68;;
40058;SDS011;25763;49.972;8.568;2024-02-21T10:05:00;90.97;;;85.47;;
40058;SDS011;25763;49.972;8.568;2024-02-21T10:07:25;87.13;;;82.63;;
40058;SDS011;25763;49.972;8.568;2024-02-21T10:10:01;79.05;;;75.15;;
40058;SDS011;25763;49.972;8.568;2024-02-21T10:12:27;66.88;;;63.47;;
40058;SDS011;25763;49.972;8.568;2024-02-21T10:15:02;74.47;;;70.57;;
40058;SDS011;25763;49.972;8.568;2024-02-21T10:17:28;74.82;;;71.03;;
40058;SDS011;25763;49.972;8.568;2024-02-21T10:19:53;72.28;;;68.43;;
40058;SDS011;25763;49.972;8.568;2024-02-21T10:22:19;63.97;;;60.67;;
40058;SDS011;25763;49.972;8.568;2024-02-21T10:24:46;73.57;;;69.60;;
40058;SDS011;25763;49.972;8.568;2024-02-21T10:27:11;62.70;;;59.47;;
40058;SDS011;25763;49.972;8.568;2024-02-21T10:29:37;58.70;;;55.47;;
40058;SDS011;25763;49.972;8.568;2024-02-21T10:32:10;53.15;;;50.45;;
40058;SDS011;25763;49.972;8.568;2024-02-21T10:34:36;40.40;;;38.22;;
40058;SDS011;25763;49.972;8.568;2024-02-21T10:37:09;47.00;;;44.60;;
40058;SDS011;25763;49.972;8.568;2024-02-21T10:39:39;48.83;;;46.33;;
40058;SDS011;25763;49.972;8.568;2024-02-21T10:42:06;50.63;;;47.53;;
40058;SDS011;25763;49.972;8.568;2024-02-21T10:44:33;48.15;;;45.65;;
40058;SDS011;25763;49.972;8.568;2024-02-21T10:47:03;31.73;;;30.02;;
40058;SDS011;25763;49.972;8.568;2024-02-21T10:49:33;38.75;;;36.65;;
40058;SDS011;25763;49.972;8.568;2024-02-21T10:54:56;25.83;;;24.42;;
40058;SDS011;25763;49.972;8.568;2024-02-21T10:57:28;30.42;;;28.83;;
40058;SDS011;25763;49.972;8.568;2024-02-21T10:59:56;35.08;;;33.28;;
40058;SDS011;25763;49.972;8.568;2024-02-21T11:02:24;25.33;;;23.98;;
40058;SDS011;25763;49.972;8.568;2024-02-21T11:04:50;24.45;;;23.15;;
40058;SDS011;25763;49.972;8.568;2024-02-21T11:07:18;30.58;;;28.92;;
40058;SDS011;25763;49.972;8.568;2024-02-21T11:09:50;25.55;;;24.02;;
40058;SDS011;25763;49.972;8.568;2024-02-21T11:12:20;25.20;;;23.52;;
40058;SDS011;25763;49.972;8.568;2024-02-21T11:14:46;31.98;;;30.23;;
40058;SDS011;25763;49.972;8.568;2024-02-21T11:17:18;26.98;;;25.52;;
40058;SDS011;25763;49.972;8.568;2024-02-21T11:19:47;24.45;;;22.48;;
40058;SDS011;25763;49.972;8.568;2024-02-21T11:22:16;24.52;;;23.13;;
40058;SDS011;25763;49.972;8.568;2024-02-21T11:24:42;22.98;;;21.67;;
40058;SDS011;25763;49.972;8.568;2024-02-21T11:29:47;21.75;;;20.55;;
40058;SDS011;25763;49.972;8.568;2024-02-21T11:32:16;23.92;;;22.63;;
40058;SDS011;25763;49.972;8.568;2024-02-21T11:35:02;19.92;;;18.83;;
40058;SDS011;25763;49.972;8.568;2024-02-21T11:37:32;22.75;;;20.92;;
40058;SDS011;25763;49.972;8.568;2024-02-21T11:39:59;20.83;;;19.70;;
40058;SDS011;25763;49.972;8.568;2024-02-21T11:42:28;23.17;;;21.83;;
40058;SDS011;25763;49.972;8.568;2024-02-21T11:44:56;23.45;;;22.05;;
40058;SDS011;25763;49.972;8.568;2024-02-21T11:47:22;22.17;;;20.50;;
40058;SDS011;25763;49.972;8.568;2024-02-21T11:49:48;21.98;;;20.77;;
40058;SDS011;25763;49.972;8.568;2024-02-21T11:52:18;19.65;;;18.55;;
40058;SDS011;25763;49.972;8.568;2024-02-21T11:54:47;21.35;;;20.15;;
40058;SDS011;25763;49.972;8.568;2024-02-21T11:57:13;22.48;;;21.27;;
40058;SDS011;25763;49.972;8.568;2024-02-21T11:59:39;21.10;;;19.92;;
40058;SDS011;25763;49.972;8.568;2024-02-21T12:02:05;22.25;;;21.05;;
40058;SDS011;25763;49.972;8.568;2024-02-21T12:04:30;22.92;;;21.63;;
40058;SDS011;25763;49.972;8.568;2024-02-21T12:06:56;23.48;;;22.08;;
40058;SDS011;25763;49.972;8.568;2024-02-21T12:09:23;23.00;;;21.63;;
40058;SDS011;25763;49.972;8.568;2024-02-21T12:14:25;23.92;;;22.50;;
40058;SDS011;25763;49.972;8.568;2024-02-21T12:16:55;27.23;;;25.48;;
40058;SDS011;25763;49.972;8.568;2024-02-21T12:19:20;23.88;;;22.58;;
40058;SDS011;25763;49.972;8.568;2024-02-21T12:21:47;21.40;;;20.25;;
40058;SDS011;25763;49.972;8.568;2024-02-21T12:24:15;23.27;;;21.90;;
40058;SDS011;25763;49.972;8.568;2024-02-21T12:26:42;22.88;;;21.45;;
40058;SDS011;25763;49.972;8.568;2024-02-21T12:29:07;22.75;;;21.45;;
40058;SDS011;25763;49.972;8.568;2024-02-21T12:31:36;33.08;;;31.35;;
40058;SDS011;25763;49.972;8.568;2024-02-21T12:34:05;33.05;;;31.30;;
40058;SDS011;25763;49.972;8.568;2024-02-21T12:36:31;32.05;;;30.30;;
40058;SDS011;25763;49.972;8.568;2024-02-21T12:38:57;33.88;;;32.03;;
40058;SDS011;25763;49.972;8.568;2024-02-21T12:41:23;32.33;;;30.63;;
40058;SDS011;25763;49.972;8.568;2024-02-21T12:43:50;40.58;;;38.47;;
40058;SDS011;25763;49.972;8.568;2024-02-21T12:46:16;36.17;;;34.28;;
40058;SDS011;25763;49.972;8.568;2024-02-21T12:48:41;38.67;;;36.67;;
40058;SDS011;25763;49.972;8.568;2024-02-21T12:51:07;41.70;;;39.53;;
40058;SDS011;25763;49.972;8.568;2024-02-21T12:53:32;37.15;;;35.25;;
40058;SDS011;25763;49.972;8.568;2024-02-21T12:55:57;34.95;;;33.13;;
40058;SDS011;25763;49.972;8.568;2024-02-21T12:58:23;47.92;;;44.65;;
40058;SDS011;25763;49.972;8.568;2024-02-21T13:00:48;43.13;;;40.83;;
40058;SDS011;25763;49.972;8.568;2024-02-21T13:03:14;40.28;;;38.13;;
40058;SDS011;25763;49.972;8.568;2024-02-21T13:05:39;45.63;;;43.33;;
40058;SDS011;25763;49.972;8.568;2024-02-21T13:08:05;47.92;;;45.42;;
40058;SDS011;25763;49.972;8.568;2024-02-21T13:10:31;46.63;;;44.22;;
40058;SDS011;25763;49.972;8.568;2024-02-21T13:12:59;45.42;;;43.13;;
40058;SDS011;25763;49.972;8.568;2024-02-21T13:15:24;43.03;;;40.28;;
40058;SDS011;25763;49.972;8.568;2024-02-21T13:17:50;47.13;;;44.72;;
40058;SDS011;25763;49.972;8.568;2024-02-21T13:20:15;52.78;;;50.10;;
40058;SDS011;25763;49.972;8.568;2024-02-21T13:22:40;47.20;;;44.60;;
40058;SDS011;25763;49.972;8.568;2024-02-21T13:25:06;44.10;;;41.38;;
40058;SDS011;25763;49.972;8.568;2024-02-21T13:27:32;45.45;;;42.90;;
40058;SDS011;25763;49.972;8.568;2024-02-21T13:29:58;47.70;;;45.28;;
40058;SDS011;25763;49.972;8.568;2024-02-21T13:32:25;40.33;;;38.25;;
40058;SDS011;25763;49.972;8.568;2024-02-21T13:34:50;43.03;;;40.67;;
40058;SDS011;25763;49.972;8.568;2024-02-21T13:37:17;45.10;;;42.80;;
40058;SDS011;25763;49.972;8.568;2024-02-21T13:39:43;45.80;;;43.03;;
40058;SDS011;25763;49.972;8.568;2024-02-21T13:42:08;43.63;;;41.33;;
40058;SDS011;25763;49.972;8.568;2024-02-21T13:44:34;45.55;;;43.08;;
40058;SDS011;25763;49.972;8.568;2024-02-21T13:46:59;46.05;;;43.65;;
40058;SDS011;25763;49.972;8.568;2024-02-21T13:49:25;44.65;;;42.25;;
40058;SDS011;25763;49.972;8.568;2024-02-21T13:51:50;42.25;;;40.05;;
40058;SDS011;25763;49.972;8.568;2024-02-21T13:54:16;41.17;;;39.05;;
40058;SDS011;25763;49.972;8.568;2024-02-21T13:56:44;48.45;;;45.95;;
40058;SDS011;25763;49.972;8.568;2024-02-21T13:59:10;46.47;;;44.00;;
40058;SDS011;25763;49.972;8.568;2024-02-21T14:01:36;48.35;;;45.85;;
40058;SDS011;25763;49.972;8.568;2024-02-21T14:04:02;49.92;;;47.40;;
40058;SDS011;25763;49.972;8.568;2024-02-21T14:06:27;45.70;;;43.33;;
40058;SDS011;25763;49.972;8.568;2024-02-21T14:08:52;46.58;;;44.08;;
40058;SDS011;25763;49.972;8.568;2024-02-21T14:11:18;45.22;;;42.90;;
40058;SDS011;25763;49.972;8.568;2024-02-21T14:13:43;47.22;;;44.72;;
40058;SDS011;25763;49.972;8.568;2024-02-21T14:16:10;43.70;;;41.40;;
40058;SDS011;25763;49.972;8.568;2024-02-21T14:18:38;48.05;;;45.65;;
40058;SDS011;25763;49.972;8.568;2024-02-21T14:21:06;45.72;;;43.42;;
40058;SDS011;25763;49.972;8.568;2024-02-21T14:23:31;45.15;;;42.85;;
40058;SDS011;25763;49.972;8.568;2024-02-21T14:25:58;45.30;;;42.88;;
40058;SDS011;25763;49.972;8.568;2024-02-21T14:28:23;47.25;;;44.72;;
40058;SDS011;25763;49.972;8.568;2024-02-21T14:30:49;42.88;;;40.67;;
40058;SDS011;25763;49.972;8.568;2024-02-21T14:33:18;43.67;;;41.47;;